createdAt,value
2019-02-04T00:00:37.345Z,36.98
2019-02-04T00:01:37.405Z,36.67
2019-02-04T00:02:37.343Z,36.87
2019-02-04T00:03:37.319Z,36.47
2019-02-04T00:04:37.301Z,36.67
2019-02-04T00:05:37.300Z,36.47
2019-02-04T00:06:37.316Z,36.67
2019-02-04T00:07:37.278Z,37.18
2019-02-04T00:08:37.260Z,36.37
2019-02-04T00:09:37.252Z,36.87
2019-02-04T00:10:37.258Z,36.37
2019-02-04T00:11:37.256Z,36.87
2019-02-04T00:12:37.230Z,36.87
2019-02-04T00:13:37.213Z,36.57
2019-02-04T00:14:37.189Z,36.89
2019-02-04T00:15:37.179Z,36.47
2019-02-04T00:16:40.743Z,36.27
2019-02-04T00:17:37.222Z,36.77
2019-02-04T00:18:37.200Z,36.87
2019-02-04T00:19:37.290Z,36.87
2019-02-04T00:20:37.161Z,36.67
2019-02-04T00:21:37.219Z,36.67
2019-02-04T00:22:37.137Z,36.27
2019-02-04T00:23:37.125Z,36.47
2019-02-04T00:24:37.143Z,36.57
2019-02-04T00:25:37.135Z,36.87
2019-02-04T00:26:37.179Z,36.57
2019-02-04T00:27:37.058Z,36.37
2019-02-04T00:28:37.043Z,36.27
2019-02-04T00:29:37.041Z,36.47
2019-02-04T00:30:37.018Z,36.77
2019-02-04T00:31:37.054Z,36.77
2019-02-04T00:32:37.008Z,36.69
2019-02-04T00:33:36.987Z,36.57
2019-02-04T00:34:36.984Z,36.87
2019-02-04T00:35:36.981Z,36.37
2019-02-04T00:36:37.256Z,36.67
2019-02-04T00:37:36.956Z,36.67
2019-02-04T00:38:36.945Z,36.49
2019-02-04T00:39:36.925Z,37.07
2019-02-04T00:40:36.914Z,36.59
2019-02-04T00:41:36.940Z,36.37
2019-02-04T00:42:36.908Z,36.79
2019-02-04T00:43:37.140Z,36.49
2019-02-04T00:44:36.887Z,36.69
2019-02-04T00:45:36.896Z,36.49
2019-02-04T00:46:36.897Z,36.57
2019-02-04T00:47:36.859Z,36.99
2019-02-04T00:48:36.931Z,36.57
2019-02-04T00:49:36.825Z,36.89
2019-02-04T00:50:36.811Z,36.69
2019-02-04T00:51:36.804Z,36.89
2019-02-04T00:52:36.879Z,36.69
2019-02-04T00:53:36.783Z,36.99
2019-02-04T00:54:36.761Z,36.59
2019-02-04T00:55:36.750Z,36.79
2019-02-04T00:56:36.740Z,37.19
2019-02-04T00:57:36.770Z,36.79
2019-02-04T00:58:36.723Z,36.49
2019-02-04T00:59:36.721Z,37.19
2019-02-04T01:00:36.692Z,36.59
2019-02-04T01:01:36.683Z,36.49
2019-02-04T01:02:36.681Z,36.89
2019-02-04T01:03:36.660Z,36.29
2019-02-04T01:04:36.656Z,36.49
2019-02-04T01:05:36.661Z,36.49
2019-02-04T01:06:36.627Z,36.99
2019-02-04T01:07:36.624Z,36.89
2019-02-04T01:08:36.631Z,36.99
2019-02-04T01:09:36.601Z,37.29
2019-02-04T01:10:36.610Z,36.69
2019-02-04T01:11:36.571Z,36.29
2019-02-04T01:12:36.609Z,36.59
2019-02-04T01:13:36.552Z,37.40
2019-02-04T01:14:36.540Z,36.99
2019-02-04T01:15:36.532Z,36.49
2019-02-04T01:16:36.512Z,36.99
2019-02-04T01:17:36.601Z,36.79
2019-02-04T01:18:36.537Z,36.79
2019-02-04T01:19:36.533Z,36.79
2019-02-04T01:20:36.492Z,36.69
2019-02-04T01:21:36.513Z,36.49
2019-02-04T01:22:36.544Z,36.99
2019-02-04T01:23:36.495Z,36.89
2019-02-04T01:24:36.472Z,36.79
2019-02-04T01:25:36.477Z,36.79
2019-02-04T01:26:36.438Z,36.89
2019-02-04T01:27:36.454Z,36.99
2019-02-04T01:28:36.409Z,36.89
2019-02-04T01:29:36.376Z,36.79
2019-02-04T01:30:36.373Z,36.79
2019-02-04T01:31:36.365Z,36.99
2019-02-04T01:32:36.378Z,36.89
2019-02-04T01:33:36.351Z,36.59
2019-02-04T01:34:36.329Z,36.89
2019-02-04T01:35:36.317Z,37.40
2019-02-04T01:36:36.355Z,36.69
2019-02-04T01:37:36.325Z,37.19
2019-02-04T01:38:36.286Z,37.19
2019-02-04T01:39:36.270Z,36.49
2019-02-04T01:40:36.251Z,37.09
2019-02-04T01:41:36.244Z,36.89
2019-02-04T01:42:36.304Z,36.79
2019-02-04T01:43:36.230Z,37.29
2019-02-04T01:44:36.219Z,36.69
2019-02-04T01:45:36.226Z,36.49
2019-02-04T01:46:36.186Z,36.59
2019-02-04T01:47:36.224Z,36.89
2019-02-04T01:48:36.176Z,36.29
2019-02-04T01:49:36.167Z,36.99
2019-02-04T01:50:36.156Z,36.49
2019-02-04T01:51:36.139Z,36.69
2019-02-04T01:52:36.161Z,36.79
2019-02-04T01:53:36.126Z,36.59
2019-02-04T01:54:36.107Z,36.59
2019-02-04T01:55:36.129Z,36.49
2019-02-04T01:56:36.166Z,36.79
2019-02-04T01:57:36.121Z,36.69
2019-02-04T01:58:36.146Z,36.51
2019-02-04T01:59:36.052Z,36.79
2019-02-04T02:00:36.045Z,37.40
2019-02-04T02:01:36.043Z,37.40
2019-02-04T02:02:36.047Z,37.01
2019-02-04T02:03:36.009Z,36.99
2019-02-04T02:04:35.994Z,36.79
2019-02-04T02:05:35.985Z,36.59
2019-02-04T02:06:35.978Z,36.49
2019-02-04T02:07:36.004Z,36.49
2019-02-04T02:08:35.989Z,37.19
2019-02-04T02:09:35.944Z,37.01
2019-02-04T02:10:35.940Z,36.59
2019-02-04T02:11:35.938Z,36.91
2019-02-04T02:12:35.941Z,36.79
2019-02-04T02:13:35.921Z,36.69
2019-02-04T02:14:35.901Z,36.51
2019-02-04T02:15:35.883Z,37.19
2019-02-04T02:16:35.872Z,36.49
2019-02-04T02:17:35.935Z,36.59
2019-02-04T02:18:35.865Z,36.49
2019-02-04T02:19:35.862Z,36.99
2019-02-04T02:20:35.863Z,36.61
2019-02-04T02:21:35.864Z,36.69
2019-02-04T02:22:36.005Z,36.29
2019-02-04T02:23:35.824Z,37.29
2019-02-04T02:24:35.813Z,37.21
2019-02-04T02:25:35.839Z,36.79
2019-02-04T02:26:35.817Z,36.99
2019-02-04T02:27:35.817Z,37.19
2019-02-04T02:28:35.746Z,37.40
2019-02-04T02:29:35.725Z,36.79
2019-02-04T02:30:35.731Z,37.09
2019-02-04T02:31:35.707Z,36.79
2019-02-04T02:32:35.738Z,36.79
2019-02-04T02:33:35.693Z,36.49
2019-02-04T02:34:35.670Z,37.29
2019-02-04T02:35:35.689Z,36.39
2019-02-04T02:36:35.664Z,36.59
2019-02-04T02:37:35.723Z,36.49
2019-02-04T02:38:35.660Z,36.59
2019-02-04T02:39:35.639Z,36.29
2019-02-04T02:40:35.606Z,36.49
2019-02-04T02:41:35.606Z,36.89
2019-02-04T02:42:35.575Z,36.79
2019-02-04T02:43:35.603Z,36.30
2019-02-04T02:44:35.566Z,36.59
2019-02-04T02:45:35.559Z,37.11
2019-02-04T02:46:35.543Z,36.30
2019-02-04T02:47:38.351Z,36.59
2019-02-04T02:48:35.549Z,36.69
2019-02-04T02:49:35.512Z,36.59
2019-02-04T02:50:35.494Z,37.11
2019-02-04T02:51:35.483Z,36.29
2019-02-04T02:52:35.476Z,36.71
2019-02-04T02:53:35.513Z,36.91
2019-02-04T02:54:35.456Z,36.99
2019-02-04T02:55:35.448Z,36.69
2019-02-04T02:56:35.469Z,36.81
2019-02-04T02:57:35.438Z,36.61
2019-02-04T02:58:35.443Z,36.49
2019-02-04T02:59:35.394Z,36.89
2019-02-04T03:00:35.389Z,36.59
2019-02-04T03:01:35.376Z,36.59
2019-02-04T03:02:35.359Z,36.49
2019-02-04T03:03:35.396Z,36.91
2019-02-04T03:04:35.374Z,36.69
2019-02-04T03:05:35.339Z,36.61
2019-02-04T03:06:35.318Z,36.19
2019-02-04T03:07:35.311Z,36.49
2019-02-04T03:08:35.351Z,36.91
2019-02-04T03:09:35.296Z,36.59
2019-02-04T03:10:35.270Z,36.99
2019-02-04T03:11:35.272Z,36.51
2019-02-04T03:12:35.254Z,36.69
2019-02-04T03:13:35.276Z,36.99
2019-02-04T03:14:35.234Z,36.99
2019-02-04T03:15:35.271Z,36.89
2019-02-04T03:16:35.220Z,36.69
2019-02-04T03:17:35.261Z,36.89
2019-02-04T03:18:35.297Z,36.91
2019-02-04T03:19:35.281Z,36.39
2019-02-04T03:20:35.191Z,36.08
2019-02-04T03:21:35.190Z,36.20
2019-02-04T03:22:35.184Z,36.39
2019-02-04T03:23:35.257Z,36.39
2019-02-04T03:24:35.156Z,36.49
2019-02-04T03:25:35.148Z,37.01
2019-02-04T03:26:35.170Z,36.69
2019-02-04T03:27:35.137Z,36.40
2019-02-04T03:28:35.116Z,36.49
2019-02-04T03:29:35.117Z,36.59
2019-02-04T03:30:35.112Z,36.89
2019-02-04T03:31:35.075Z,36.69
2019-02-04T03:32:35.049Z,36.59
2019-02-04T03:33:35.067Z,36.89
2019-02-04T03:34:35.017Z,36.79
2019-02-04T03:35:35.009Z,36.69
2019-02-04T03:36:35.006Z,36.79
2019-02-04T03:37:34.995Z,36.59
2019-02-04T03:38:35.002Z,36.69
2019-02-04T03:39:34.969Z,36.89
2019-02-04T03:40:34.942Z,37.21
2019-02-04T03:41:34.945Z,36.89
2019-02-04T03:42:35.218Z,36.49
2019-02-04T03:43:34.958Z,36.69
2019-02-04T03:44:34.914Z,36.39
2019-02-04T03:45:34.894Z,37.21
2019-02-04T03:46:34.890Z,36.69
2019-02-04T03:47:34.880Z,36.79
2019-02-04T03:48:34.876Z,36.39
2019-02-04T03:49:34.859Z,36.49
2019-02-04T03:50:34.840Z,36.79
2019-02-04T03:51:34.838Z,36.79
2019-02-04T03:52:34.824Z,36.69
2019-02-04T03:53:34.805Z,36.19
2019-02-04T03:54:34.835Z,36.29
2019-02-04T03:55:34.794Z,36.51
2019-02-04T03:56:34.781Z,36.30
2019-02-04T03:57:34.764Z,36.49
2019-02-04T03:58:34.748Z,36.51
2019-02-04T03:59:34.781Z,36.49
2019-02-04T04:00:34.758Z,36.59
2019-02-04T04:01:34.768Z,36.59
2019-02-04T04:02:34.725Z,36.71
2019-02-04T04:03:34.695Z,36.30
2019-02-04T04:04:34.783Z,36.40
2019-02-04T04:05:34.691Z,36.69
2019-02-04T04:06:34.680Z,36.89
2019-02-04T04:07:34.651Z,36.49
2019-02-04T04:08:34.650Z,36.91
2019-02-04T04:09:34.733Z,36.51
2019-02-04T04:10:34.623Z,36.40
2019-02-04T04:11:34.614Z,36.39
2019-02-04T04:12:34.626Z,36.19
2019-02-04T04:13:34.597Z,36.20
2019-02-04T04:14:34.606Z,36.81
2019-02-04T04:15:34.575Z,35.80
2019-02-04T04:16:34.557Z,36.61
2019-02-04T04:17:34.578Z,36.20
2019-02-04T04:18:34.587Z,36.40
2019-02-04T04:19:34.720Z,36.81
2019-02-04T04:20:34.551Z,36.10
2019-02-04T04:21:34.531Z,35.60
2019-02-04T04:22:34.542Z,36.51
2019-02-04T04:23:34.513Z,36.51
2019-02-04T04:24:34.576Z,36.61
2019-02-04T04:25:34.500Z,36.51
2019-02-04T04:26:34.493Z,35.10
2019-02-04T04:27:34.437Z,34.89
2019-02-04T04:28:34.425Z,35.60
2019-02-04T04:29:34.471Z,36.30
2019-02-04T04:30:34.418Z,36.91
2019-02-04T04:31:34.402Z,36.40
2019-02-04T04:32:34.455Z,36.93
2019-02-04T04:33:34.370Z,36.51
2019-02-04T04:34:34.403Z,36.40
2019-02-04T04:35:34.363Z,36.00
2019-02-04T04:36:34.361Z,36.22
2019-02-04T04:37:34.329Z,35.90
2019-02-04T04:38:34.335Z,35.21
2019-02-04T04:39:34.337Z,36.30
2019-02-04T04:40:34.300Z,35.61
2019-02-04T04:41:34.425Z,35.10
2019-02-04T04:42:34.302Z,36.61
2019-02-04T04:43:34.270Z,35.19
2019-02-04T04:44:34.295Z,35.30
2019-02-04T04:45:34.248Z,35.80
2019-02-04T04:46:34.232Z,35.41
2019-02-04T04:47:34.240Z,35.70
2019-02-04T04:48:34.327Z,36.00
2019-02-04T04:49:34.226Z,36.02
2019-02-04T04:50:34.197Z,35.21
2019-02-04T04:51:34.192Z,35.61
2019-02-04T04:52:34.172Z,35.82
2019-02-04T04:53:34.172Z,36.02
2019-02-04T04:54:34.212Z,36.12
2019-02-04T04:55:34.144Z,35.11
2019-02-04T04:56:34.270Z,35.92
2019-02-04T04:57:34.121Z,36.62
2019-02-04T04:58:34.144Z,35.52
2019-02-04T04:59:34.145Z,36.52
2019-02-04T05:00:34.163Z,36.12
2019-02-04T05:01:34.097Z,36.22
2019-02-04T05:02:34.078Z,36.12
2019-02-04T05:03:34.094Z,36.62
2019-02-04T05:04:34.075Z,36.22
2019-02-04T05:05:34.041Z,35.52
2019-02-04T05:06:34.013Z,35.61
2019-02-04T05:07:34.061Z,36.42
2019-02-04T05:08:33.997Z,35.92
2019-02-04T05:09:34.025Z,35.52
2019-02-04T05:10:34.008Z,36.62
2019-02-04T05:11:33.981Z,36.22
2019-02-04T05:12:33.942Z,36.52
2019-02-04T05:13:33.941Z,36.82
2019-02-04T05:14:33.939Z,36.82
2019-02-04T05:15:33.975Z,36.52
2019-02-04T05:16:33.956Z,36.72
2019-02-04T05:17:33.946Z,36.52
2019-02-04T05:18:38.306Z,36.42
2019-02-04T05:19:33.923Z,36.42
2019-02-04T05:20:33.896Z,35.72
2019-02-04T05:21:33.897Z,36.04
2019-02-04T05:22:33.869Z,36.22
2019-02-04T05:23:33.864Z,36.52
2019-02-04T05:24:33.856Z,36.62
2019-02-04T05:25:33.852Z,36.93
2019-02-04T05:26:33.828Z,37.02
2019-02-04T05:27:33.782Z,36.82
2019-02-04T05:28:33.775Z,36.72
2019-02-04T05:29:33.767Z,36.72
2019-02-04T05:30:33.794Z,36.93
2019-02-04T05:31:33.736Z,36.93
2019-02-04T05:32:33.745Z,36.52
2019-02-04T05:33:33.806Z,36.72
2019-02-04T05:34:33.704Z,36.93
2019-02-04T05:35:33.730Z,36.72
2019-02-04T05:36:33.757Z,36.93
2019-02-04T05:37:33.676Z,36.62
2019-02-04T05:38:33.692Z,36.52
2019-02-04T05:39:33.658Z,36.22
2019-02-04T05:40:33.677Z,36.62
2019-02-04T05:41:33.683Z,36.51
2019-02-04T05:42:34.662Z,36.91
2019-02-04T05:43:33.652Z,36.91
2019-02-04T05:44:33.644Z,36.91
2019-02-04T05:45:33.625Z,36.61
2019-02-04T05:46:33.573Z,36.71
2019-02-04T05:47:33.624Z,36.93
2019-02-04T05:48:33.563Z,36.42
2019-02-04T05:49:33.560Z,36.12
2019-02-04T05:50:33.568Z,36.62
2019-02-04T05:51:33.596Z,36.91
2019-02-04T05:52:33.519Z,36.72
2019-02-04T05:53:33.514Z,36.72
2019-02-04T05:54:33.493Z,36.42
2019-02-04T05:55:33.519Z,36.91
2019-02-04T05:56:33.571Z,36.42
2019-02-04T05:57:33.465Z,36.52
2019-02-04T05:58:33.445Z,36.51
2019-02-04T05:59:33.437Z,36.51
2019-02-04T06:00:33.466Z,35.90
2019-02-04T06:01:33.555Z,36.51
2019-02-04T06:02:33.401Z,36.71
2019-02-04T06:03:33.392Z,36.42
2019-02-04T06:04:33.420Z,36.51
2019-02-04T06:05:33.397Z,36.61
2019-02-04T06:06:33.380Z,36.20
2019-02-04T06:07:33.372Z,36.51
2019-02-04T06:08:33.345Z,36.81
2019-02-04T06:09:33.347Z,36.40
2019-02-04T06:10:33.343Z,36.40
2019-02-04T06:11:33.313Z,36.30
2019-02-04T06:12:35.065Z,36.30
2019-02-04T06:13:33.294Z,36.81
2019-02-04T06:14:33.396Z,35.90
2019-02-04T06:15:33.283Z,36.71
2019-02-04T06:16:33.309Z,36.61
2019-02-04T06:17:33.300Z,36.71
2019-02-04T06:18:33.264Z,36.51
2019-02-04T06:19:33.254Z,36.00
2019-02-04T06:20:33.296Z,36.51
2019-02-04T06:21:33.238Z,36.81
2019-02-04T06:22:33.247Z,36.51
2019-02-04T06:23:33.223Z,36.00
2019-02-04T06:24:33.244Z,36.51
2019-02-04T06:25:33.256Z,36.71
2019-02-04T06:26:33.173Z,36.61
2019-02-04T06:27:33.147Z,35.60
2019-02-04T06:28:33.120Z,35.60
2019-02-04T06:29:33.117Z,35.50
2019-02-04T06:30:33.129Z,35.60
2019-02-04T06:31:33.097Z,36.51
2019-02-04T06:32:34.641Z,35.50
2019-02-04T06:33:33.085Z,36.30
2019-02-04T06:34:33.078Z,35.90
2019-02-04T06:35:33.065Z,35.30
2019-02-04T06:36:33.049Z,35.60
2019-02-04T06:37:33.030Z,36.40
2019-02-04T06:38:33.039Z,36.61
2019-02-04T06:39:33.083Z,36.51
2019-02-04T06:40:32.993Z,35.80
2019-02-04T06:41:33.013Z,37.01
2019-02-04T06:42:32.985Z,36.71
2019-02-04T06:43:32.956Z,36.61
2019-02-04T06:44:32.969Z,36.40
2019-02-04T06:45:32.952Z,36.91
2019-02-04T06:46:32.941Z,37.21
2019-02-04T06:47:32.924Z,37.41
2019-02-04T06:48:32.899Z,36.71
2019-02-04T06:49:32.897Z,36.51
2019-02-04T06:50:32.894Z,37.62
2019-02-04T06:51:32.886Z,37.92
2019-02-04T06:52:32.854Z,37.31
2019-02-04T06:53:32.872Z,36.62
2019-02-04T06:54:32.841Z,37.84
2019-02-04T06:55:32.828Z,37.53
2019-02-04T06:56:35.846Z,37.33
2019-02-04T06:57:32.809Z,38.34
2019-02-04T06:58:32.797Z,37.63
2019-02-04T06:59:32.787Z,37.53
2019-02-04T07:00:32.782Z,38.04
2019-02-04T07:01:32.792Z,37.73
2019-02-04T07:02:32.987Z,38.13
2019-02-04T07:03:32.782Z,38.44
2019-02-04T07:04:32.731Z,39.15
2019-02-04T07:05:43.129Z,38.64
2019-02-04T07:06:32.736Z,38.95
2019-02-04T07:07:32.701Z,38.13
2019-02-04T07:08:32.689Z,37.33
2019-02-04T07:09:32.745Z,38.34
2019-02-04T07:10:32.857Z,37.23
2019-02-04T07:11:32.846Z,36.62
2019-02-04T07:12:32.654Z,36.40
2019-02-04T07:13:32.630Z,35.61
2019-02-04T07:14:32.634Z,35.61
2019-02-04T07:15:32.628Z,34.99
2019-02-04T07:16:33.964Z,35.30
2019-02-04T07:17:32.619Z,34.99
2019-02-04T07:18:32.619Z,34.59
2019-02-04T07:19:32.680Z,34.79
2019-02-04T07:20:32.606Z,34.69
2019-02-04T07:21:32.627Z,34.47
2019-02-04T07:22:32.580Z,35.17
2019-02-04T07:23:32.699Z,34.57
2019-02-04T07:24:42.369Z,35.10
2019-02-04T07:25:32.667Z,34.67
2019-02-04T07:26:32.633Z,34.88
2019-02-04T07:27:32.515Z,34.47
2019-02-04T07:28:32.468Z,34.67
2019-02-04T07:29:32.479Z,34.37
2019-02-04T07:30:32.448Z,34.88
2019-02-04T07:31:32.470Z,34.47
2019-02-04T07:32:32.548Z,34.27
2019-02-04T07:33:32.476Z,34.57
2019-02-04T07:34:32.418Z,34.47
2019-02-04T07:35:32.412Z,34.67
2019-02-04T07:36:32.473Z,33.36
2019-02-04T07:37:32.393Z,34.57
2019-02-04T07:38:33.585Z,33.47
2019-02-04T07:39:32.357Z,33.56
2019-02-04T07:40:32.343Z,33.76
2019-02-04T07:41:32.365Z,34.27
2019-02-04T07:42:32.346Z,33.76
2019-02-04T07:43:32.326Z,34.16
2019-02-04T07:44:32.303Z,33.25
2019-02-04T07:45:32.277Z,33.04
2019-02-04T07:46:32.317Z,32.95
2019-02-04T07:47:32.314Z,31.63
2019-02-04T07:48:32.309Z,30.32
2019-02-04T07:49:35.165Z,30.64
2019-02-04T07:50:32.237Z,30.44
2019-02-04T07:51:32.276Z,30.74
2019-02-04T07:52:32.396Z,30.66
2019-02-04T07:53:32.342Z,31.96
2019-02-04T07:54:32.215Z,32.07
2019-02-04T07:55:32.201Z,32.17
2019-02-04T07:56:32.318Z,33.07
2019-02-04T07:57:32.202Z,32.47
2019-02-04T07:58:32.200Z,32.76
2019-02-04T07:59:32.172Z,31.65
2019-02-04T08:00:32.142Z,33.06
2019-02-04T08:01:38.985Z,33.06
2019-02-04T08:02:32.328Z,33.04
2019-02-04T08:03:32.315Z,32.34
2019-02-04T08:04:32.391Z,32.64
2019-02-04T08:05:32.259Z,32.84
2019-02-04T08:06:32.310Z,32.32
2019-02-04T08:07:32.081Z,32.93
2019-02-04T08:08:32.103Z,32.93
2019-02-04T08:09:32.089Z,32.83
2019-02-04T08:10:32.080Z,32.81
2019-02-04T08:11:32.116Z,32.91
2019-02-04T08:12:32.049Z,32.71
2019-02-04T08:13:31.989Z,33.01
2019-02-04T08:14:31.995Z,32.20
2019-02-04T08:15:31.994Z,32.70
2019-02-04T08:16:32.019Z,32.90
2019-02-04T08:17:32.078Z,32.70
2019-02-04T08:18:31.994Z,32.70
2019-02-04T08:19:32.099Z,32.38
2019-02-04T08:20:31.958Z,32.78
2019-02-04T08:21:31.925Z,32.68
2019-02-04T08:22:32.012Z,32.88
2019-02-04T08:23:31.929Z,32.98
2019-02-04T08:24:31.914Z,32.68
2019-02-04T08:25:31.904Z,33.48
2019-02-04T08:26:31.884Z,33.39
2019-02-04T08:27:32.017Z,32.68
2019-02-04T08:28:31.828Z,32.08
2019-02-04T08:29:31.861Z,32.28
2019-02-04T08:30:31.849Z,32.68
2019-02-04T08:31:31.827Z,32.48
2019-02-04T08:32:31.856Z,31.88
2019-02-04T08:33:31.856Z,32.68
2019-02-04T08:34:31.830Z,32.97
2019-02-04T08:35:31.978Z,32.46
2019-02-04T08:36:43.057Z,32.46
2019-02-04T08:37:31.732Z,33.27
2019-02-04T08:38:31.760Z,32.97
2019-02-04T08:39:31.726Z,33.27
2019-02-04T08:40:31.695Z,32.97
2019-02-04T08:41:31.759Z,32.76
2019-02-04T08:42:31.718Z,33.07
2019-02-04T08:43:33.924Z,32.46
2019-02-04T08:44:31.649Z,33.47
2019-02-04T08:45:31.672Z,32.76
2019-02-04T08:46:31.647Z,32.87
2019-02-04T08:47:31.624Z,32.87
2019-02-04T08:48:31.600Z,32.97
2019-02-04T08:49:31.785Z,33.17
2019-02-04T08:50:31.602Z,32.36
2019-02-04T08:51:31.578Z,32.67
2019-02-04T08:52:31.565Z,32.45
2019-02-04T08:53:32.549Z,32.95
2019-02-04T08:54:31.572Z,33.15
2019-02-04T08:55:31.552Z,33.05
2019-02-04T08:56:31.707Z,33.36
2019-02-04T08:57:31.546Z,31.85
2019-02-04T08:58:31.512Z,32.15
2019-02-04T08:59:31.546Z,32.35
2019-02-04T09:00:31.478Z,32.45
2019-02-04T09:01:31.451Z,32.33
2019-02-04T09:02:31.463Z,32.43
2019-02-04T09:03:31.444Z,32.43
2019-02-04T09:04:31.455Z,33.04
2019-02-04T09:05:31.435Z,32.43
2019-02-04T09:06:31.408Z,32.84
2019-02-04T09:07:31.523Z,32.43
2019-02-04T09:08:32.099Z,32.12
2019-02-04T09:09:31.485Z,31.93
2019-02-04T09:10:31.369Z,33.04
2019-02-04T09:11:31.445Z,31.83
2019-02-04T09:12:31.351Z,31.73
2019-02-04T09:13:31.324Z,31.71
2019-02-04T09:14:31.528Z,32.64
2019-02-04T09:15:31.314Z,32.53
2019-02-04T09:16:31.340Z,31.83
2019-02-04T09:17:31.375Z,32.93
2019-02-04T09:18:31.333Z,33.34
2019-02-04T09:19:31.350Z,32.84
2019-02-04T09:20:31.357Z,32.62
2019-02-04T09:21:31.294Z,32.42
2019-02-04T09:22:31.278Z,31.82
2019-02-04T09:23:31.286Z,31.71
2019-02-04T09:24:31.367Z,29.91
2019-02-04T09:25:31.257Z,29.81
2019-02-04T09:26:31.310Z,29.91
2019-02-04T09:27:31.335Z,29.93
2019-02-04T09:28:31.206Z,30.12
2019-02-04T09:29:31.356Z,30.12
2019-02-04T09:30:31.200Z,29.72
2019-02-04T09:31:31.212Z,30.12
2019-02-04T09:32:31.172Z,30.71
2019-02-04T09:33:31.148Z,31.31
2019-02-04T09:34:31.196Z,30.83
2019-02-04T09:35:31.105Z,30.93
2019-02-04T09:36:31.105Z,30.32
2019-02-04T09:37:31.125Z,30.73
2019-02-04T09:38:31.066Z,31.53
2019-02-04T09:39:31.067Z,31.23
2019-02-04T09:40:31.104Z,31.13
2019-02-04T09:41:31.040Z,31.33
2019-02-04T09:42:31.026Z,30.83
2019-02-04T09:43:31.054Z,30.93
2019-02-04T09:44:31.393Z,31.13
2019-02-04T09:45:31.054Z,30.83
2019-02-04T09:46:31.105Z,30.93
2019-02-04T09:47:31.172Z,31.63
2019-02-04T09:48:31.141Z,30.52
2019-02-04T09:49:31.080Z,30.32
2019-02-04T09:50:32.542Z,30.22
2019-02-04T09:51:30.988Z,31.43
2019-02-04T09:52:30.961Z,30.43
2019-02-04T09:53:30.904Z,31.43
2019-02-04T09:54:30.998Z,31.53
2019-02-04T09:55:30.922Z,31.13
2019-02-04T09:56:30.864Z,30.83
2019-02-04T09:57:30.937Z,30.73
2019-02-04T09:58:31.310Z,31.13
2019-02-04T09:59:30.887Z,30.93
2019-02-04T10:00:30.944Z,30.73
2019-02-04T10:01:30.934Z,30.52
2019-02-04T10:02:30.899Z,30.12
2019-02-04T10:03:30.774Z,29.93
2019-02-04T10:04:30.893Z,31.03
2019-02-04T10:05:31.236Z,30.63
2019-02-04T10:06:30.792Z,31.83
2019-02-04T10:07:30.750Z,31.63
2019-02-04T10:08:30.752Z,30.73
2019-02-04T10:09:30.762Z,31.63
2019-02-04T10:10:30.766Z,31.53
2019-02-04T10:11:30.707Z,31.03
2019-02-04T10:12:30.682Z,31.13
2019-02-04T10:13:30.700Z,30.73
2019-02-04T10:14:30.660Z,31.43
2019-02-04T10:15:30.849Z,30.73
2019-02-04T10:16:30.670Z,30.73
2019-02-04T10:17:30.721Z,30.43
2019-02-04T10:18:30.684Z,31.03
2019-02-04T10:19:30.677Z,30.93
2019-02-04T10:20:33.973Z,29.93
2019-02-04T10:21:30.633Z,30.93
2019-02-04T10:22:30.667Z,30.73
2019-02-04T10:23:31.656Z,31.33
2019-02-04T10:24:30.619Z,30.73
2019-02-04T10:25:31.251Z,30.73
2019-02-04T10:26:30.638Z,31.03
2019-02-04T10:27:30.665Z,31.33
2019-02-04T10:28:30.659Z,32.33
2019-02-04T10:29:30.542Z,31.33
2019-02-04T10:30:30.618Z,31.53
2019-02-04T10:31:30.523Z,30.93
2019-02-04T10:32:30.472Z,31.13
2019-02-04T10:33:30.467Z,31.63
2019-02-04T10:34:30.476Z,32.03
2019-02-04T10:35:30.484Z,30.93
2019-02-04T10:36:30.444Z,31.73
2019-02-04T10:37:30.582Z,32.23
2019-02-04T10:38:30.493Z,31.12
2019-02-04T10:39:30.420Z,32.33
2019-02-04T10:40:30.421Z,32.64
2019-02-04T10:41:30.398Z,32.14
2019-02-04T10:42:30.385Z,32.33
2019-02-04T10:43:30.353Z,32.93
2019-02-04T10:44:30.352Z,32.43
2019-02-04T10:45:30.369Z,33.14
2019-02-04T10:46:30.614Z,32.33
2019-02-04T10:47:31.202Z,32.43
2019-02-04T10:48:30.302Z,33.14
2019-02-04T10:49:30.300Z,32.84
2019-02-04T10:50:30.312Z,32.14
2019-02-04T10:51:30.275Z,33.52
2019-02-04T10:52:30.326Z,33.64
2019-02-04T10:53:30.268Z,33.64
2019-02-04T10:54:30.258Z,33.54
2019-02-04T10:55:30.337Z,34.53
2019-02-04T10:56:30.292Z,34.63
2019-02-04T10:57:40.306Z,34.33
2019-02-04T10:58:30.292Z,33.32
2019-02-04T10:59:30.212Z,34.63
2019-02-04T11:00:30.217Z,34.53
2019-02-04T11:01:30.156Z,33.62
2019-02-04T11:02:30.191Z,33.72
2019-02-04T11:03:30.214Z,32.92
2019-02-04T11:04:30.136Z,34.51
2019-02-04T11:05:32.712Z,33.81
2019-02-04T11:06:30.115Z,34.31
2019-02-04T11:07:30.085Z,35.01
2019-02-04T11:08:32.758Z,35.01
2019-02-04T11:09:30.134Z,34.61
2019-02-04T11:10:30.077Z,34.41
2019-02-04T11:11:30.068Z,35.01
2019-02-04T11:12:30.068Z,34.61
2019-02-04T11:13:30.053Z,34.31
2019-02-04T11:14:30.042Z,34.41
2019-02-04T11:15:30.132Z,34.61
2019-02-04T11:16:29.992Z,34.29
2019-02-04T11:17:35.127Z,33.79
2019-02-04T11:18:30.141Z,34.29
2019-02-04T11:19:30.017Z,33.59
2019-02-04T11:20:30.002Z,34.59
2019-02-04T11:21:30.004Z,34.89
2019-02-04T11:22:30.004Z,33.09
2019-02-04T11:23:29.957Z,32.99
2019-02-04T11:24:33.166Z,34.59
2019-02-04T11:25:29.928Z,33.39
2019-02-04T11:26:30.033Z,33.19
2019-02-04T11:27:29.910Z,33.29
2019-02-04T11:28:29.924Z,32.89
2019-02-04T11:29:29.873Z,32.59
2019-02-04T11:30:30.018Z,33.11
2019-02-04T11:31:29.829Z,32.09
2019-02-04T11:32:29.843Z,32.89
2019-02-04T11:33:30.007Z,33.20
2019-02-04T11:34:29.866Z,33.11
2019-02-04T11:35:29.792Z,33.20
2019-02-04T11:36:30.095Z,32.89
2019-02-04T11:37:29.915Z,32.29
2019-02-04T11:38:29.815Z,32.90
2019-02-04T11:39:29.815Z,32.69
2019-02-04T11:40:29.731Z,32.99
2019-02-04T11:41:29.772Z,32.79
2019-02-04T11:42:29.803Z,32.59
2019-02-04T11:43:29.709Z,33.19
2019-02-04T11:44:29.720Z,33.49
2019-02-04T11:45:29.737Z,33.39
2019-02-04T11:46:29.681Z,32.99
2019-02-04T11:47:29.825Z,33.29
2019-02-04T11:48:29.664Z,33.19
2019-02-04T11:49:29.664Z,32.79
2019-02-04T11:50:29.626Z,33.29
2019-02-04T11:51:29.615Z,32.69
2019-02-04T11:52:29.627Z,32.79
2019-02-04T11:53:33.120Z,32.18
2019-02-04T11:54:30.592Z,32.67
2019-02-04T11:55:29.568Z,31.77
2019-02-04T11:56:29.551Z,31.57
2019-02-04T11:57:29.567Z,31.79
2019-02-04T11:58:29.536Z,32.77
2019-02-04T11:59:29.546Z,32.17
2019-02-04T12:00:29.550Z,31.77
2019-02-04T12:01:29.519Z,31.87
2019-02-04T12:02:34.656Z,32.57
2019-02-04T12:03:29.473Z,31.97
2019-02-04T12:04:29.484Z,31.59
2019-02-04T12:05:29.475Z,32.07
2019-02-04T12:06:29.583Z,32.57
2019-02-04T12:07:29.993Z,32.07
2019-02-04T12:08:29.429Z,31.87
2019-02-04T12:09:29.412Z,31.97
2019-02-04T12:10:29.408Z,31.77
2019-02-04T12:11:29.405Z,32.07
2019-02-04T12:12:29.430Z,32.87
2019-02-04T12:13:29.376Z,32.07
2019-02-04T12:14:29.346Z,31.77
2019-02-04T12:15:29.375Z,31.85
2019-02-04T12:16:29.382Z,32.17
2019-02-04T12:17:29.407Z,32.17
2019-02-04T12:18:29.345Z,32.06
2019-02-04T12:19:29.340Z,31.37
2019-02-04T12:20:29.337Z,31.37
2019-02-04T12:21:29.314Z,31.37
2019-02-04T12:22:29.380Z,31.26
2019-02-04T12:23:29.327Z,31.27
2019-02-04T12:24:29.305Z,31.46
2019-02-04T12:25:29.289Z,32.57
2019-02-04T12:26:29.254Z,31.65
2019-02-04T12:27:32.154Z,32.07
2019-02-04T12:28:29.218Z,31.87
2019-02-04T12:29:29.210Z,30.47
2019-02-04T12:30:31.137Z,30.27
2019-02-04T12:31:29.175Z,29.27
2019-02-04T12:32:29.203Z,28.45
2019-02-04T12:33:29.169Z,28.77
2019-02-04T12:34:29.139Z,28.46
2019-02-04T12:35:29.153Z,29.06
2019-02-04T12:36:29.112Z,28.56
2019-02-04T12:37:29.206Z,28.16
2019-02-04T12:38:29.107Z,29.27
2019-02-04T12:39:29.112Z,29.77
2019-02-04T12:40:29.089Z,29.57
2019-02-04T12:41:29.068Z,30.87
2019-02-04T12:42:29.055Z,30.36
2019-02-04T12:43:29.051Z,31.07
2019-02-04T12:44:29.321Z,30.57
2019-02-04T12:45:29.029Z,30.67
2019-02-04T12:46:29.010Z,29.86
2019-02-04T12:47:29.031Z,30.67
2019-02-04T12:48:28.993Z,30.07
2019-02-04T12:49:28.981Z,30.47
2019-02-04T12:50:29.022Z,31.17
2019-02-04T12:51:33.842Z,30.77
2019-02-04T12:52:28.981Z,30.47